Schijndel, Netherlands
Current Conditions -  °F | °C
As of 7:05 PM on Saturday 25 Oct 2014 (Local Time) from EHEH Reporting Station
Clear Clear  
Wind Chill: 50°   Ceiling: Unl
Heat Index: 50°   Visibility: 6mi
Dew Point: 45°   Wind: 5mph
Humidity: 82%   Direction: 240°WSW
Pressure: 30.12"   Gusts: NA
Location:  51.62°N, 5.43°E
Report Text: EHEH 251705Z AUTO 24004KT 9999 NCD 10/07 Q1020 BLU 22005KT CAVOK
Loading
Personal Weather Stations






























Interactive Weather Map
Tropical Storm Tracking
New forecast layout! Learn more

10-Day Weather Forecast

Advertisements
Track Severe Weather on mobile